Time;durP1;ratioP1;P1;durP2;ratioP2;P2;SDS_P1;SDS_P2;PMS_P1;PMS_P2;Temp;Humidity;BMP_temperature;BMP_pressure;BME280_temperature;BME280_humidity;BME280_pressure;Samples;Min_cycle;Max_cycle;Signal;HPM_P1;HPM_P2
2022/07/06 00:01:55;;;;;;;1.20;1.10;;;;;;;26.25;44.60;100845.53;5127323;27;20050;-73
2022/07/06 00:04:23;;;;;;;1.30;0.90;;;;;;;26.30;44.57;100844.41;5126270;27;20047;-73
2022/07/06 00:06:51;;;;;;;2.33;0.93;;;;;;;26.30;46.36;100862.03;5129094;27;20043;-73
2022/07/06 00:09:20;;;;;;;0.95;0.82;;;;;;;26.22;47.01;100856.69;5118982;27;20035;-73
2022/07/06 00:11:48;;;;;;;1.42;1.00;;;;;;;26.13;47.71;100862.56;5125320;27;20043;-73
2022/07/06 00:14:16;;;;;;;0.98;0.98;;;;;;;26.09;48.10;100867.34;5123311;27;20063;-73
2022/07/06 00:16:44;;;;;;;1.20;1.10;;;;;;;25.98;48.63;100854.00;5122749;27;20043;-72
2022/07/06 00:19:12;;;;;;;1.15;0.90;;;;;;;26.00;48.56;100864.84;5118501;27;20055;-72
2022/07/06 00:21:40;;;;;;;1.02;0.90;;;;;;;25.91;48.00;100865.13;5129257;27;20047;-73
2022/07/06 00:24:08;;;;;;;1.13;1.02;;;;;;;25.97;48.55;100859.97;5125462;27;20039;-72
2022/07/06 00:26:36;;;;;;;1.10;1.00;;;;;;;25.96;49.40;100856.34;5132054;27;20044;-72
2022/07/06 00:29:04;;;;;;;2.25;1.20;;;;;;;25.79;49.56;100849.31;5088852;27;20044;-73
2022/07/06 00:31:32;;;;;;;1.63;1.08;;;;;;;25.66;49.50;100845.94;5129086;27;20516;-73
2022/07/06 00:34:00;;;;;;;2.97;1.30;;;;;;;25.59;49.62;100860.66;5107783;27;20056;-72
2022/07/06 00:36:28;;;;;;;1.42;0.98;;;;;;;25.57;49.82;100865.81;5131164;27;20490;-73
2022/07/06 00:38:56;;;;;;;1.08;0.98;;;;;;;25.45;51.23;100871.59;5118990;27;20059;-73
2022/07/06 00:41:25;;;;;;;1.98;1.00;;;;;;;25.40;52.08;100869.13;5111198;27;20055;-73
2022/07/06 00:43:55;;;;;;;2.45;1.30;;;;;;;25.25;53.40;100876.47;5121742;27;20051;-72
2022/07/06 00:46:32;;;;;;;1.23;0.90;;;;;;;25.11;54.64;100886.25;5124708;27;20055;-73
2022/07/06 00:49:01;;;;;;;1.75;0.98;;;;;;;25.05;55.65;100896.13;5130259;27;20047;-73
2022/07/06 00:51:32;;;;;;;1.13;1.05;;;;;;;25.13;55.18;100886.69;5117856;27;20062;-74
2022/07/06 00:54:03;;;;;;;2.80;1.02;;;;;;;25.10;55.65;100915.44;5113415;27;20058;-73
2022/07/06 00:56:32;;;;;;;1.10;1.02;;;;;;;25.15;55.52;100894.69;5132445;27;20477;-73
2022/07/06 00:59:01;;;;;;;1.35;1.25;;;;;;;25.28;55.27;100904.56;5120795;27;20052;-73
2022/07/06 01:01:30;;;;;;;1.20;1.10;;;;;;;25.33;54.83;100903.44;5119217;27;20054;-73
2022/07/06 01:03:58;;;;;;;1.30;1.20;;;;;;;25.41;54.40;100910.75;5122753;27;20044;-74
2022/07/06 01:06:26;;;;;;;1.38;1.05;;;;;;;25.47;54.35;100905.66;5117045;27;20043;-73
2022/07/06 01:08:55;;;;;;;0.90;0.90;;;;;;;25.48;53.99;100905.25;5123532;27;20043;-73
2022/07/06 01:11:23;;;;;;;3.35;1.00;;;;;;;25.48;53.91;100891.25;5115562;27;20055;-73
2022/07/06 01:13:51;;;;;;;1.20;1.10;;;;;;;25.53;53.25;100878.13;5114498;27;20051;-73
2022/07/06 01:16:19;;;;;;;0.93;0.77;;;;;;;25.47;53.58;100870.03;5097770;27;20048;-73
2022/07/06 01:18:48;;;;;;;0.90;0.90;;;;;;;25.44;53.41;100862.41;5097119;28;20063;-73
2022/07/06 01:21:16;;;;;;;1.75;0.82;;;;;;;25.43;52.82;100857.97;5098496;27;20413;-73
2022/07/06 01:23:45;;;;;;;0.93;0.93;;;;;;;25.52;53.29;100862.50;5103841;27;20394;-73
2022/07/06 01:26:18;;;;;;;0.70;0.70;;;;;;;25.60;53.09;100859.47;5118615;27;20047;-73
2022/07/06 01:28:49;;;;;;;0.90;0.70;;;;;;;25.60;53.03;100865.06;5116351;28;20050;-73
2022/07/06 01:31:22;;;;;;;0.90;0.90;;;;;;;25.67;51.69;100858.78;5112679;28;20802;-73
2022/07/06 01:33:53;;;;;;;0.90;0.85;;;;;;;25.57;53.05;100863.00;5116573;28;20501;-73
2022/07/06 01:36:22;;;;;;;3.08;0.90;;;;;;;25.65;51.81;100846.31;5115238;28;20039;-73
2022/07/06 01:38:58;;;;;;;1.63;1.23;;;;;;;25.67;51.13;100846.75;5120540;28;20047;-73
2022/07/06 01:41:26;;;;;;;0.80;0.80;;;;;;;25.62;50.44;100845.88;5118173;28;20506;-72
2022/07/06 01:43:55;;;;;;;1.25;0.93;;;;;;;25.60;51.27;100858.66;5113767;28;20043;-73
2022/07/06 01:46:22;;;;;;;1.17;0.95;;;;;;;25.49;51.54;100858.47;5098761;28;20035;-72
2022/07/06 01:48:51;;;;;;;1.00;0.88;;;;;;;25.43;51.88;100866.38;5113956;28;20050;-72
2022/07/06 01:51:19;;;;;;;1.17;1.08;;;;;;;25.39;53.03;100871.13;5120115;28;20051;-73
2022/07/06 01:53:48;;;;;;;1.50;0.93;;;;;;;25.49;52.25;100881.69;5106309;28;20493;-72
2022/07/06 01:56:19;;;;;;;2.15;1.02;;;;;;;25.42;50.78;100875.16;5103900;28;20044;-73
2022/07/06 01:58:50;;;;;;;0.75;0.75;;;;;;;25.28;52.02;100861.72;5101588;28;20039;-72
2022/07/06 02:01:19;;;;;;;1.58;1.00;;;;;;;25.12;52.72;100859.84;5123730;28;20054;-73
2022/07/06 02:03:48;;;;;;;1.27;0.75;;;;;;;25.03;53.33;100853.72;5096152;28;20044;-73
2022/07/06 02:06:16;;;;;;;2.72;0.95;;;;;;;24.88;54.63;100845.03;5100895;28;20043;-73
2022/07/06 02:08:47;;;;;;;1.35;1.13;;;;;;;24.81;54.31;100856.13;5100100;28;20035;-73
2022/07/06 02:11:15;;;;;;;1.73;1.00;;;;;;;24.77;53.95;100866.41;5098183;28;20058;-73
2022/07/06 02:13:44;;;;;;;1.90;0.90;;;;;;;24.61;54.60;100863.69;5099370;28;20039;-73
2022/07/06 02:16:13;;;;;;;1.75;1.08;;;;;;;24.64;54.69;100872.16;5100786;28;20043;-73
2022/07/06 02:18:41;;;;;;;0.90;0.90;;;;;;;24.74;54.56;100870.78;5099559;27;20047;-73
2022/07/06 02:21:09;;;;;;;1.10;1.00;;;;;;;24.78;53.85;100868.03;5101749;27;20047;-74
2022/07/06 02:23:37;;;;;;;2.60;0.88;;;;;;;24.83;54.00;100881.75;5119350;27;20048;-73
2022/07/06 02:26:05;;;;;;;1.85;1.00;;;;;;;24.76;54.33;100878.78;5105973;27;20053;-73
2022/07/06 02:28:34;;;;;;;1.35;0.98;;;;;;;24.72;54.29;100887.09;5108445;27;20039;-73
2022/07/06 02:31:03;;;;;;;0.90;0.80;;;;;;;24.68;54.72;100891.84;5125565;27;20409;-73
2022/07/06 02:33:31;;;;;;;0.75;0.75;;;;;;;24.76;53.92;100884.38;5098824;27;20047;-74
2022/07/06 02:35:59;;;;;;;0.70;0.70;;;;;;;24.82;53.86;100888.50;5091047;27;20047;-74
2022/07/06 02:38:27;;;;;;;0.98;0.80;;;;;;;24.75;53.96;100893.94;5107886;27;20035;-74
2022/07/06 02:40:57;;;;;;;0.88;0.88;;;;;;;24.77;54.48;100898.00;5113858;27;20047;-73
2022/07/06 02:43:25;;;;;;;0.68;0.68;;;;;;;24.80;53.79;100904.84;5128798;27;20051;-73
2022/07/06 02:45:54;;;;;;;1.45;0.82;;;;;;;24.74;53.60;100909.94;5110689;27;20044;-73
2022/07/06 02:48:22;;;;;;;1.02;0.93;;;;;;;24.80;53.74;100913.25;5098464;28;20048;-73
2022/07/06 02:50:51;;;;;;;0.95;0.80;;;;;;;24.87;53.74;100923.81;5100250;28;20046;-73
2022/07/06 02:53:20;;;;;;;2.28;1.00;;;;;;;24.80;53.41;100918.84;5101685;27;20055;-73
2022/07/06 02:55:51;;;;;;;1.40;0.90;;;;;;;24.79;54.14;100917.22;5111457;27;20047;-74
2022/07/06 02:58:20;;;;;;;0.73;0.73;;;;;;;25.03;52.48;100918.91;5115325;27;20481;-74
2022/07/06 03:00:48;;;;;;;2.38;0.98;;;;;;;24.91;51.93;100914.28;5121991;27;20048;-73
2022/07/06 03:03:16;;;;;;;1.15;1.05;;;;;;;24.87;52.34;100916.19;5129931;27;20055;-73
2022/07/06 03:05:46;;;;;;;0.80;0.80;;;;;;;24.76;52.71;100913.19;5111875;28;20051;-73
2022/07/06 03:08:15;;;;;;;0.60;0.60;;;;;;;24.82;52.77;100919.31;5109561;27;20039;-74
2022/07/06 03:10:43;;;;;;;0.82;0.60;;;;;;;24.77;53.13;100898.00;5130794;27;20687;-74
2022/07/06 03:13:11;;;;;;;1.92;0.73;;;;;;;24.91;52.09;100903.09;5110960;27;20047;-73
2022/07/06 03:15:40;;;;;;;1.50;1.00;;;;;;;24.88;53.12;100915.03;5103526;27;20046;-74
2022/07/06 03:18:09;;;;;;;1.75;1.20;;;;;;;24.89;52.63;100918.63;5108666;27;20051;-74
2022/07/06 03:20:37;;;;;;;0.70;0.70;;;;;;;24.95;52.31;100926.38;5107467;27;20401;-74
2022/07/06 03:23:07;;;;;;;0.90;0.52;;;;;;;24.86;52.76;100922.16;5110891;27;20043;-73
2022/07/06 03:25:36;;;;;;;1.05;0.80;;;;;;;24.76;52.88;100923.53;5113124;27;20051;-73
2022/07/06 03:28:04;;;;;;;0.98;0.82;;;;;;;24.82;52.42;100930.50;5104505;27;20043;-73
2022/07/06 03:30:32;;;;;;;0.93;0.90;;;;;;;24.78;52.34;100935.19;5113659;28;20050;-73
2022/07/06 03:33:00;;;;;;;0.80;0.80;;;;;;;24.79;52.16;100931.22;5097569;27;20048;-74
2022/07/06 03:35:30;;;;;;;0.80;0.70;;;;;;;24.83;52.65;100929.34;5094760;28;20054;-73
2022/07/06 03:37:58;;;;;;;0.85;0.80;;;;;;;24.76;51.94;100929.16;5128686;27;20508;-73
2022/07/06 03:40:29;;;;;;;0.93;0.90;;;;;;;24.82;51.66;100934.13;5094927;28;20051;-73
2022/07/06 03:42:57;;;;;;;0.70;0.70;;;;;;;24.89;50.73;100932.63;5094975;28;20058;-74
2022/07/06 03:45:26;;;;;;;1.23;0.77;;;;;;;24.81;50.86;100931.69;5097226;27;20035;-73
2022/07/06 03:47:55;;;;;;;1.20;0.85;;;;;;;24.77;51.10;100931.59;5105048;27;20048;-73
2022/07/06 03:50:23;;;;;;;3.30;0.95;;;;;;;24.79;51.89;100931.22;5098693;28;20055;-74
2022/07/06 03:52:51;;;;;;;0.90;0.90;;;;;;;24.85;50.39;100921.38;5122481;27;20039;-74
2022/07/06 03:55:19;;;;;;;0.90;0.90;;;;;;;24.83;49.68;100926.53;5117152;27;20065;-73
2022/07/06 03:57:54;;;;;;;1.25;0.80;;;;;;;24.80;49.90;100936.44;5112853;28;20426;-73
2022/07/06 04:00:24;;;;;;;1.25;0.90;;;;;;;24.82;51.03;100927.69;5095153;28;20533;-74
2022/07/06 04:03:00;;;;;;;0.73;0.60;;;;;;;24.73;51.87;100913.09;5094625;28;20047;-74
2022/07/06 04:05:31;;;;;;;1.73;0.73;;;;;;;24.83;53.10;100918.94;5095656;27;20251;-74
2022/07/06 04:08:00;;;;;;;1.20;1.05;;;;;;;24.74;54.23;100914.72;5094688;28;20043;-73
2022/07/06 04:10:42;;;;;;;1.10;1.00;;;;;;;24.64;54.48;100911.34;5096272;27;20070;-73
2022/07/06 04:13:11;;;;;;;1.55;1.17;;;;;;;24.68;55.77;100915.03;5099303;28;20044;-73
2022/07/06 04:15:39;;;;;;;1.00;0.98;;;;;;;24.74;56.04;100903.53;5093769;28;20059;-73
2022/07/06 04:18:08;;;;;;;1.40;1.30;;;;;;;24.62;56.31;100901.69;5094499;28;20044;-73
2022/07/06 04:20:45;;;;;;;1.50;1.20;;;;;;;24.57;55.15;100908.41;5096632;27;20044;-73
2022/07/06 04:23:14;;;;;;;3.20;1.50;;;;;;;24.58;55.55;100910.00;5098664;28;20046;-73
2022/07/06 04:25:41;;;;;;;0.70;0.70;;;;;;;24.67;55.77;100902.22;5094638;28;20060;-73
2022/07/06 04:28:10;;;;;;;2.40;1.08;;;;;;;24.83;54.27;100902.16;5099020;28;20048;-73
2022/07/06 04:30:38;;;;;;;2.10;1.00;;;;;;;24.90;53.75;100901.47;5098750;27;20058;-73
2022/07/06 04:33:10;;;;;;;1.20;1.10;;;;;;;25.43;53.14;100894.41;5115674;27;20478;-79
2022/07/06 04:35:40;;;;;;;1.05;0.85;;;;;;;25.53;51.65;100894.94;5074874;28;20051;-79
2022/07/06 04:38:08;;;;;;;1.00;1.00;;;;;;;25.74;51.30;100911.31;5097370;27;20043;-79
2022/07/06 04:40:36;;;;;;;1.58;1.30;;;;;;;25.93;50.86;100938.44;5066199;27;20066;-79
2022/07/06 04:43:08;;;;;;;1.20;1.10;;;;;;;26.10;49.36;100947.47;5063752;28;20051;-79
2022/07/06 04:45:38;;;;;;;2.50;1.02;;;;;;;26.26;48.87;100927.69;5071361;27;20061;-79
2022/07/06 04:48:08;;;;;;;1.85;1.10;;;;;;;26.39;48.12;100914.25;5079906;27;20039;-78
2022/07/06 04:50:37;;;;;;;1.90;0.90;;;;;;;26.32;48.40;100934.59;5092451;27;20059;-79
2022/07/06 04:53:11;;;;;;;2.05;1.15;;;;;;;26.48;48.05;100937.19;5081869;28;20071;-79
2022/07/06 04:55:40;;;;;;;1.90;0.80;;;;;;;26.65;47.15;100935.81;5079530;28;20055;-79
2022/07/06 04:58:08;;;;;;;2.25;1.48;;;;;;;26.77;47.11;100940.34;5070084;28;20485;-79
2022/07/06 05:00:37;;;;;;;2.08;1.10;;;;;;;26.74;46.75;100957.97;5066561;28;20047;-80
2022/07/06 05:03:05;;;;;;;2.10;1.00;;;;;;;26.83;46.03;100958.47;5081105;27;20501;-79
2022/07/06 05:05:33;;;;;;;1.05;1.05;;;;;;;26.82;46.13;100972.88;5095372;27;20047;-79
2022/07/06 05:08:02;;;;;;;1.15;0.77;;;;;;;26.89;46.38;100980.59;5090159;28;20047;-78
2022/07/06 05:10:31;;;;;;;0.88;0.80;;;;;;;26.93;46.53;100970.25;5074536;27;20055;-79
2022/07/06 05:12:59;;;;;;;2.40;0.75;;;;;;;26.81;46.00;100974.88;5066330;28;20044;-79
2022/07/06 05:15:30;;;;;;;1.20;0.80;;;;;;;26.76;45.70;100986.47;5070468;28;20051;-77
2022/07/06 05:17:58;;;;;;;1.00;0.90;;;;;;;26.84;45.65;100990.97;5088331;28;20040;-78
2022/07/06 05:20:26;;;;;;;2.78;0.82;;;;;;;26.86;45.63;100993.38;5080079;27;20055;-78
2022/07/06 05:22:54;;;;;;;1.00;0.90;;;;;;;26.90;44.85;100999.03;5071760;28;20520;-79
2022/07/06 05:25:28;;;;;;;0.82;0.82;;;;;;;26.98;44.71;101012.03;5070794;28;20060;-79
2022/07/06 05:27:57;;;;;;;0.77;0.77;;;;;;;26.80;44.19;101008.94;5066770;28;20051;-79
2022/07/06 05:30:26;;;;;;;1.17;1.05;;;;;;;26.82;44.33;101015.81;5066509;28;20040;-78
2022/07/06 05:32:56;;;;;;;0.95;0.65;;;;;;;26.82;44.35;101029.03;5091705;28;20048;-78
2022/07/06 05:35:24;;;;;;;1.08;0.80;;;;;;;26.79;44.69;101046.66;5074617;28;20062;-78
2022/07/06 05:38:12;;;;;;;5.40;1.10;;;;;;;26.86;44.74;101063.56;5081865;28;20067;-80
2022/07/06 05:40:42;;;;;;;0.98;0.88;;;;;;;26.91;44.69;101066.09;5062304;28;20481;-80
2022/07/06 05:43:10;;;;;;;1.10;1.00;;;;;;;27.04;44.82;101083.50;5066858;28;20043;-80
2022/07/06 05:45:38;;;;;;;1.13;1.02;;;;;;;26.83;45.95;101083.97;5079534;28;20406;-81
2022/07/06 05:50:53;;;;;;;1.10;1.00;;;;;;;26.43;49.54;101086.22;5079595;28;20044;-80
2022/07/06 05:53:23;;;;;;;2.00;0.95;;;;;;;26.39;51.14;101088.19;5098342;27;20051;-80
2022/07/06 05:55:54;;;;;;;3.03;1.10;;;;;;;26.22;56.30;101093.09;5099679;28;20036;-80
2022/07/06 05:58:24;;;;;;;6.63;1.48;;;;;;;25.90;60.98;101085.75;5098706;27;20035;-81
2022/07/06 06:00:54;;;;;;;2.50;1.23;;;;;;;25.67;61.14;101068.94;5108742;27;20043;-81
2022/07/06 06:03:23;;;;;;;4.40;1.50;;;;;;;25.27;66.26;101070.94;5081965;28;20402;-81
2022/07/06 06:05:51;;;;;;;3.90;1.30;;;;;;;24.76;68.73;101057.88;5127453;27;20046;-81
2022/07/06 06:08:20;;;;;;;5.57;1.55;;;;;;;24.59;68.88;101061.91;5096686;28;20398;-81
2022/07/06 06:10:52;;;;;;;2.03;1.27;;;;;;;24.33;69.56;101043.75;5099203;28;20038;-82
2022/07/06 06:13:22;;;;;;;3.30;1.65;;;;;;;24.45;71.21;101045.59;5096585;28;20036;-82
2022/07/06 06:15:51;;;;;;;2.65;1.50;;;;;;;24.45;71.43;101031.63;5098883;27;20050;-82
2022/07/06 06:18:19;;;;;;;3.90;1.60;;;;;;;24.38;71.86;101032.25;5096373;28;20039;-82
2022/07/06 06:20:49;;;;;;;4.55;1.67;;;;;;;24.36;72.68;101035.44;5114260;28;20042;-81
2022/07/06 06:23:16;;;;;;;1.65;1.13;;;;;;;24.47;73.24;101029.25;5114560;27;20039;-81
2022/07/06 06:25:44;;;;;;;2.83;1.52;;;;;;;24.44;71.83;101025.22;5114221;28;20059;-81
2022/07/06 06:28:13;;;;;;;2.55;1.60;;;;;;;24.24;70.30;101016.78;5114353;28;20044;-80
2022/07/06 06:30:44;;;;;;;1.67;1.40;;;;;;;23.92;70.61;101021.56;5113731;28;20054;-80
2022/07/06 06:33:16;;;;;;;3.75;1.70;;;;;;;23.86;70.78;101023.81;5114205;28;20058;-80
2022/07/06 06:35:49;;;;;;;2.70;1.35;;;;;;;24.03;71.26;101019.84;5116724;27;20042;-80
2022/07/06 06:38:18;;;;;;;2.20;1.90;;;;;;;24.13;71.28;101010.94;5114294;28;20032;-81
2022/07/06 06:40:47;;;;;;;1.58;1.45;;;;;;;24.16;70.76;101020.59;5114374;28;20047;-81
2022/07/06 06:43:15;;;;;;;6.13;1.58;;;;;;;24.39;71.73;101020.72;5115220;28;20040;-81
2022/07/06 06:45:52;;;;;;;1.50;1.40;;;;;;;24.46;68.77;101016.44;5097056;28;20039;-81
2022/07/06 06:48:20;;;;;;;1.30;1.20;;;;;;;24.62;68.30;101020.00;5115944;28;20389;-80
2022/07/06 06:50:48;;;;;;;1.77;1.65;;;;;;;24.70;65.97;101018.97;5121085;27;20059;-80
2022/07/06 06:53:16;;;;;;;2.58;1.40;;;;;;;24.94;65.17;101036.69;5135778;27;20484;-81
2022/07/06 06:55:44;;;;;;;1.23;1.10;;;;;;;25.23;61.73;101037.28;5135274;27;20061;-81
2022/07/06 06:58:12;;;;;;;2.50;2.00;;;;;;;25.60;60.99;101037.97;5135500;27;20039;-82
2022/07/06 07:00:40;;;;;;;1.73;1.02;;;;;;;25.69;60.72;101046.97;5135479;27;20043;-86
2022/07/06 07:03:10;;;;;;;1.30;1.20;;;;;;;25.80;60.48;101041.53;5116896;27;20042;-86
2022/07/06 07:05:37;;;;;;;1.17;1.08;;;;;;;26.05;54.62;101057.94;5135446;27;20492;-86
2022/07/06 07:08:05;;;;;;;1.50;1.40;;;;;;;26.27;57.65;101053.53;5135267;27;20031;-87
2022/07/06 07:10:33;;;;;;;1.25;1.20;;;;;;;26.42;57.19;101053.75;5135186;27;20051;-87
2022/07/06 07:13:01;;;;;;;1.30;1.13;;;;;;;26.65;57.73;101058.47;5135086;27;20485;-87
2022/07/06 07:15:29;;;;;;;1.08;1.08;;;;;;;26.66;56.56;101051.69;5135077;27;20074;-87
2022/07/06 07:17:57;;;;;;;2.33;0.90;;;;;;;26.78;56.92;101051.44;5134955;27;20047;-87
2022/07/06 07:20:26;;;;;;;0.90;0.90;;;;;;;26.77;58.04;101058.25;5135042;27;20047;-88
2022/07/06 07:22:54;;;;;;;1.25;1.10;;;;;;;26.86;57.34;101045.91;5134997;27;20043;-87
2022/07/06 07:25:22;;;;;;;0.82;0.82;;;;;;;27.02;55.57;101057.00;5104781;28;20035;-86
2022/07/06 07:27:50;;;;;;;1.33;1.23;;;;;;;27.14;54.53;101058.72;5132872;27;20046;-86
2022/07/06 07:30:18;;;;;;;3.28;1.13;;;;;;;27.15;53.07;101061.16;5116463;27;20035;-86
2022/07/06 07:32:46;;;;;;;1.02;0.93;;;;;;;27.24;51.93;101063.66;5134662;27;20043;-86
2022/07/06 07:35:14;;;;;;;7.32;1.35;;;;;;;27.42;50.71;101057.44;5134715;27;20051;-85
2022/07/06 07:37:42;;;;;;;1.30;1.20;;;;;;;27.51;50.46;101063.53;5134817;27;20050;-86
2022/07/06 07:40:10;;;;;;;1.55;1.05;;;;;;;27.52;49.17;101053.94;5134718;27;20486;-83
2022/07/06 07:42:40;;;;;;;1.45;1.10;;;;;;;27.45;50.62;101068.72;5134557;27;20508;-84
2022/07/06 07:45:08;;;;;;;1.20;1.10;;;;;;;27.38;50.33;101057.41;5135034;27;20043;-84
2022/07/06 07:47:36;;;;;;;1.00;1.00;;;;;;;27.39;48.68;101058.19;5116380;27;20042;-85
2022/07/06 07:50:05;;;;;;;1.70;0.80;;;;;;;27.35;47.71;101067.41;5124437;27;20055;-83
2022/07/06 07:52:34;;;;;;;1.05;1.05;;;;;;;27.38;50.09;101051.78;5119410;27;20078;-85
2022/07/06 07:55:03;;;;;;;0.82;0.73;;;;;;;27.56;47.43;101062.41;5117762;27;20390;-86
2022/07/06 07:57:50;;;;;;;1.65;1.27;;;;;;;27.75;48.40;101056.59;5118384;27;20046;-85
2022/07/06 08:00:21;;;;;;;2.17;1.17;;;;;;;28.03;50.31;101060.03;5113249;27;20466;-79
2022/07/06 08:02:55;;;;;;;0.90;0.90;;;;;;;28.01;47.88;101054.00;5119066;27;20402;-78
2022/07/06 08:05:22;;;;;;;1.25;0.82;;;;;;;28.32;48.08;101063.09;5115190;27;20050;-78
2022/07/06 08:07:50;;;;;;;1.77;0.90;;;;;;;28.35;45.13;101067.13;5112931;28;20490;-78
2022/07/06 08:10:20;;;;;;;1.05;0.95;;;;;;;28.42;46.71;101067.97;5117011;27;20043;-80
2022/07/06 08:12:48;;;;;;;0.90;0.90;;;;;;;28.41;44.05;101066.38;5117302;27;20039;-80
2022/07/06 08:15:16;;;;;;;1.20;1.15;;;;;;;28.40;42.77;101072.38;5094009;28;20043;-83
2022/07/06 08:17:44;;;;;;;1.17;1.10;;;;;;;28.43;42.99;101069.59;5133666;27;20058;-81
2022/07/06 08:20:13;;;;;;;1.13;1.00;;;;;;;28.39;43.28;101059.53;5132709;27;20042;-80
2022/07/06 08:22:42;;;;;;;0.80;0.80;;;;;;;28.45;42.65;101043.88;5133345;27;20042;-80
2022/07/06 08:25:11;;;;;;;1.35;0.85;;;;;;;28.50;43.73;101046.28;5102097;28;20482;-82
2022/07/06 08:27:39;;;;;;;1.42;0.95;;;;;;;28.58;43.46;101052.78;5131893;27;20039;-82
2022/07/06 08:30:07;;;;;;;0.93;0.80;;;;;;;28.67;43.13;101047.59;5133304;27;20412;-81
2022/07/06 08:32:41;;;;;;;1.08;1.00;;;;;;;28.65;42.68;101055.66;5133594;27;20056;-80
2022/07/06 08:35:29;;;;;;;2.23;1.00;;;;;;;28.75;42.58;101056.91;5115218;27;20398;-83
2022/07/06 08:37:57;;;;;;;1.30;1.20;;;;;;;28.95;43.37;101053.78;5133956;27;20501;-73
2022/07/06 08:40:31;;;;;;;1.23;1.15;;;;;;;28.89;42.38;101058.19;5133578;27;20047;-76
2022/07/06 08:43:00;;;;;;;0.85;0.85;;;;;;;28.88;42.28;101048.94;5133912;27;20390;-84
2022/07/06 08:45:29;;;;;;;1.65;1.17;;;;;;;28.88;39.69;101054.56;5133586;27;20054;-83
2022/07/06 08:48:02;;;;;;;0.90;0.90;;;;;;;29.00;42.65;101067.50;5133649;27;20063;-84
2022/07/06 08:50:31;;;;;;;0.80;0.80;;;;;;;29.07;41.84;101069.50;5120979;27;20035;-84
2022/07/06 08:53:00;;;;;;;1.17;1.00;;;;;;;29.15;41.06;101061.91;5132142;27;20062;-84
2022/07/06 08:55:28;;;;;;;1.00;0.93;;;;;;;29.22;41.59;101067.56;5115044;27;20413;-84
2022/07/06 08:57:57;;;;;;;1.10;1.00;;;;;;;29.20;41.34;101056.69;5115020;27;20039;-85
2022/07/06 09:00:25;;;;;;;5.05;1.00;;;;;;;29.28;41.47;101051.09;5115237;27;20401;-84
2022/07/06 09:02:56;;;;;;;1.15;0.90;;;;;;;29.34;40.67;101058.75;5133225;27;20050;-83
2022/07/06 09:05:25;;;;;;;0.90;0.90;;;;;;;29.47;40.11;101061.19;5115276;27;20046;-84
2022/07/06 09:07:53;;;;;;;1.10;1.10;;;;;;;29.40;39.95;101050.69;5133151;27;20489;-83
2022/07/06 09:10:26;;;;;;;;;;;;;;;29.34;39.79;101055.94;5133712;27;20054;-83
2022/07/06 09:13:03;;;;;;;1.85;1.30;;;;;;;29.37;40.48;101052.31;5133064;27;19923;-85
2022/07/06 09:15:32;;;;;;;1.30;1.20;;;;;;;29.60;39.11;101058.81;5133270;27;20043;-84
2022/07/06 09:18:01;;;;;;;3.30;1.30;;;;;;;29.70;39.45;101058.03;5133053;27;20046;-84
2022/07/06 09:20:29;;;;;;;2.42;1.40;;;;;;;29.72;40.12;101052.78;5133147;27;20054;-83
2022/07/06 09:23:00;;;;;;;1.60;1.42;;;;;;;29.83;40.20;101060.44;5133116;27;20058;-81
2022/07/06 09:25:28;;;;;;;1.65;1.40;;;;;;;30.00;40.23;101041.91;5132950;27;20043;-81
2022/07/06 09:27:58;;;;;;;1.35;1.25;;;;;;;30.15;39.17;101037.09;5132895;27;20397;-81
2022/07/06 09:30:27;;;;;;;3.60;1.20;;;;;;;30.28;38.82;101043.09;5132664;27;20413;-82
2022/07/06 09:32:58;;;;;;;1.20;1.10;;;;;;;30.23;38.84;101043.50;5133226;28;20058;-81
2022/07/06 09:35:31;;;;;;;1.02;1.00;;;;;;;30.23;37.73;101041.50;5132768;28;20047;-81
2022/07/06 09:38:11;;;;;;;2.47;0.90;;;;;;;30.33;39.26;101050.34;5132930;28;20050;-81
2022/07/06 09:40:46;;;;;;;1.95;1.10;;;;;;;30.34;37.12;101032.22;5132798;28;20047;-81
2022/07/06 09:43:19;;;;;;;1.20;1.10;;;;;;;30.44;37.49;101037.00;5114528;28;20047;-81
2022/07/06 09:45:56;;;;;;;0.95;0.95;;;;;;;30.27;38.75;101030.22;5114858;28;20046;-81
2022/07/06 09:48:25;;;;;;;0.80;0.80;;;;;;;30.16;38.01;101033.06;5132911;28;20054;-81
2022/07/06 09:50:59;;;;;;;1.08;1.05;;;;;;;30.46;38.09;101031.78;5100210;28;20051;-81
2022/07/06 09:53:27;;;;;;;1.20;1.10;;;;;;;30.58;36.96;101031.34;5132872;28;20065;-81
2022/07/06 09:55:58;;;;;;;1.00;0.90;;;;;;;30.36;36.32;101018.50;5114138;28;20062;-80
2022/07/06 09:58:26;;;;;;;1.77;1.23;;;;;;;30.36;36.28;101024.16;5132892;28;20066;-80
2022/07/06 10:01:25;;;;;;;3.88;0.90;;;;;;;30.49;35.84;101021.69;5132638;28;20382;-81
2022/07/06 10:03:53;;;;;;;0.93;0.90;;;;;;;30.57;36.41;101015.63;5132789;28;20047;-80
2022/07/06 10:06:25;;;;;;;1.10;1.00;;;;;;;30.74;35.31;101015.19;5132593;28;20051;-81
2022/07/06 10:08:58;;;;;;;1.05;0.70;;;;;;;30.92;34.73;101026.38;5132586;28;20043;-81
2022/07/06 10:11:28;;;;;;;0.77;0.73;;;;;;;30.87;34.03;101018.34;5132533;28;20051;-80
2022/07/06 10:13:57;;;;;;;2.08;0.80;;;;;;;30.74;33.98;101007.50;5132490;28;20043;-81
2022/07/06 10:16:25;;;;;;;0.90;0.90;;;;;;;30.67;34.52;101008.31;5132484;28;20473;-81
2022/07/06 10:18:54;;;;;;;1.42;1.20;;;;;;;30.75;35.31;101011.94;5132666;28;20047;-81
2022/07/06 10:21:22;;;;;;;0.80;0.80;;;;;;;31.01;34.22;101006.97;5132458;28;20047;-80
2022/07/06 10:23:52;;;;;;;1.23;1.10;;;;;;;30.96;33.88;101015.88;5132680;28;20043;-80
2022/07/06 10:26:23;;;;;;;1.05;1.00;;;;;;;30.93;34.93;101005.41;5132532;28;20531;-81
2022/07/06 10:28:52;;;;;;;1.75;0.70;;;;;;;30.97;33.46;101001.34;5114197;28;20043;-81
2022/07/06 10:31:22;;;;;;;0.80;0.80;;;;;;;31.06;34.09;101003.72;5114106;28;20056;-80
2022/07/06 10:33:50;;;;;;;0.90;0.85;;;;;;;31.05;33.77;100995.63;5099420;28;20040;-80
2022/07/06 10:36:19;;;;;;;1.20;1.10;;;;;;;31.26;33.25;101019.34;5114176;28;20058;-81
2022/07/06 10:38:50;;;;;;;2.17;0.80;;;;;;;31.38;34.08;101007.59;5133369;27;20054;-80
2022/07/06 10:41:30;;;;;;;0.65;0.65;;;;;;;31.45;33.25;101001.06;5136127;27;20058;-81
2022/07/06 10:44:14;;;;;;;0.85;0.77;;;;;;;31.60;33.16;101013.88;5117754;27;20039;-81
2022/07/06 10:46:50;;;;;;;1.20;1.10;;;;;;;31.59;32.59;100995.31;5136113;27;20378;-81
2022/07/06 10:49:18;;;;;;;1.63;0.85;;;;;;;31.79;32.43;100994.72;5117526;27;20043;-80
2022/07/06 10:52:06;;;;;;;1.15;0.80;;;;;;;31.71;32.81;100991.16;5121150;27;20040;-80
2022/07/06 10:54:40;;;;;;;1.00;0.73;;;;;;;31.84;33.33;100985.81;5113389;28;20046;-80
2022/07/06 10:57:10;;;;;;;0.60;0.60;;;;;;;31.83;33.21;100992.66;5113651;27;20039;-80
2022/07/06 10:59:38;;;;;;;0.85;0.85;;;;;;;32.05;32.60;100986.81;5113896;28;20482;-80
2022/07/06 11:02:19;;;;;;;0.82;0.82;;;;;;;32.10;31.11;100992.00;5113632;28;20058;-80
2022/07/06 11:04:49;;;;;;;0.85;0.85;;;;;;;32.47;32.21;100985.97;5114424;27;20040;-80
2022/07/06 11:07:19;;;;;;;1.10;0.88;;;;;;;32.85;31.77;100985.91;5113417;28;20043;-81
2022/07/06 11:09:58;;;;;;;0.90;0.90;;;;;;;32.94;31.61;100991.84;5094287;28;20066;-80
2022/07/06 11:12:26;;;;;;;0.90;0.90;;;;;;;32.46;32.12;101004.19;5113368;28;20059;-81
2022/07/06 11:14:55;;;;;;;1.02;0.88;;;;;;;32.03;31.65;100994.94;5113008;28;20036;-80
2022/07/06 11:17:23;;;;;;;0.93;0.80;;;;;;;32.02;32.14;100994.13;5116033;27;20398;-81
2022/07/06 11:20:08;;;;;;;0.70;0.70;;;;;;;32.35;33.38;101001.47;5113071;27;20043;-81
2022/07/06 11:22:38;;;;;;;0.80;0.80;;;;;;;32.26;32.50;100993.47;5116025;27;20039;-80
2022/07/06 11:25:06;;;;;;;1.13;1.02;;;;;;;32.46;32.91;100998.53;5094115;28;20058;-81
2022/07/06 11:27:34;;;;;;;0.65;0.65;;;;;;;32.42;32.71;100985.25;5113018;27;20035;-80
2022/07/06 11:30:06;;;;;;;0.75;0.70;;;;;;;32.49;33.20;100989.22;5115696;27;20486;-80
2022/07/06 11:32:35;;;;;;;0.82;0.82;;;;;;;32.55;30.67;100979.81;5115705;27;20798;-80
2022/07/06 11:35:03;;;;;;;0.60;0.60;;;;;;;32.59;32.85;100979.75;5112973;27;20050;-81
2022/07/06 11:37:31;;;;;;;0.65;0.65;;;;;;;32.82;31.10;100975.41;5114136;28;20052;-81
2022/07/06 11:40:06;;;;;;;2.83;1.10;;;;;;;32.88;31.30;100970.88;5113018;28;20039;-81